createdAt,value
2019-04-05T00:02:13.189Z,18.80
2019-04-05T00:04:44.539Z,16.10
2019-04-05T00:07:15.838Z,16.70
2019-04-05T00:09:47.283Z,18.23
2019-04-05T00:12:18.589Z,17.43
2019-04-05T00:14:49.909Z,16.40
2019-04-05T00:17:21.203Z,18.53
2019-04-05T00:19:52.425Z,18.47
2019-04-05T00:22:23.741Z,20.97
2019-04-05T00:24:55.073Z,17.33
2019-04-05T00:27:26.393Z,20.10
2019-04-05T00:29:57.929Z,20.33
2019-04-05T00:32:29.085Z,21.77
2019-04-05T00:35:00.290Z,16.17
2019-04-05T00:37:31.537Z,19.00
2019-04-05T00:40:02.859Z,20.37
2019-04-05T00:42:34.136Z,20.93
2019-04-05T00:45:05.854Z,22.17
2019-04-05T00:47:37.335Z,17.90
2019-04-05T00:50:09.751Z,20.63
2019-04-05T00:52:40.956Z,25.90
2019-04-05T00:55:12.530Z,21.17
2019-04-05T00:57:43.908Z,19.90
2019-04-05T01:00:16.051Z,22.83
2019-04-05T01:02:47.345Z,20.20
2019-04-05T01:05:18.747Z,21.63
2019-04-05T01:07:50.331Z,26.03
2019-04-05T01:10:22.175Z,21.30
2019-04-05T01:12:53.967Z,21.70
2019-04-05T01:15:25.382Z,24.03
2019-04-05T01:17:56.740Z,21.53
2019-04-05T01:20:33.377Z,24.53
2019-04-05T01:23:04.964Z,20.90
2019-04-05T01:25:38.347Z,20.07
2019-04-05T01:28:09.846Z,23.93
2019-04-05T01:30:41.193Z,21.23
2019-04-05T01:33:12.499Z,20.20
2019-04-05T01:35:43.761Z,20.07
2019-04-05T01:38:15.195Z,22.60
2019-04-05T01:40:48.251Z,22.90
2019-04-05T01:43:19.894Z,28.30
2019-04-05T01:45:53.849Z,26.90
2019-04-05T01:48:24.610Z,20.30
2019-04-05T01:50:55.828Z,24.60
2019-04-05T01:53:28.051Z,22.97
2019-04-05T01:55:59.388Z,22.17
2019-04-05T01:58:30.661Z,23.57
2019-04-05T02:01:02.138Z,24.30
2019-04-05T02:03:33.600Z,23.97
2019-04-05T02:06:05.068Z,21.20
2019-04-05T02:08:36.975Z,23.17
2019-04-05T02:11:08.390Z,23.77
2019-04-05T02:13:42.618Z,22.50
2019-04-05T02:16:14.037Z,19.50
2019-04-05T02:18:45.325Z,22.60
2019-04-05T02:21:16.704Z,18.03
2019-04-05T02:23:47.943Z,26.63
2019-04-05T02:26:19.223Z,22.80
2019-04-05T02:28:50.552Z,21.80
2019-04-05T02:31:21.844Z,19.47
2019-04-05T02:33:53.299Z,24.43
2019-04-05T02:36:24.687Z,21.33
2019-04-05T02:38:55.996Z,25.27
2019-04-05T02:41:30.757Z,22.27
2019-04-05T02:44:04.185Z,20.03
2019-04-05T02:46:36.309Z,24.60
2019-04-05T02:49:08.336Z,21.17
2019-04-05T02:51:42.177Z,24.30
2019-04-05T02:54:14.127Z,23.03
2019-04-05T02:56:46.025Z,22.70
2019-04-05T02:59:18.904Z,22.30
2019-04-05T03:01:51.063Z,25.47
2019-04-05T03:04:22.393Z,26.47
2019-04-05T03:06:54.667Z,22.17
2019-04-05T03:09:26.607Z,23.20
2019-04-05T03:11:59.504Z,19.60
2019-04-05T03:14:32.573Z,18.70
2019-04-05T03:17:04.583Z,18.23
2019-04-05T03:19:39.210Z,20.70
2019-04-05T03:22:14.627Z,17.70
2019-04-05T03:24:48.626Z,18.03
2019-04-05T03:27:29.521Z,21.43
2019-04-05T03:30:02.582Z,22.77
2019-04-05T03:32:34.035Z,23.07
2019-04-05T03:35:05.722Z,21.73
2019-04-05T03:37:37.042Z,24.00
2019-04-05T03:40:08.867Z,21.77
2019-04-05T03:42:40.347Z,20.87
2019-04-05T03:45:12.061Z,29.70
2019-04-05T03:47:43.396Z,18.97
2019-04-05T03:50:14.893Z,28.70
2019-04-05T03:52:46.826Z,21.80
2019-04-05T03:55:18.439Z,22.37
2019-04-05T03:57:49.846Z,25.80
2019-04-05T04:00:21.139Z,19.00
2019-04-05T04:02:53.216Z,24.87
2019-04-05T04:05:24.600Z,20.80
2019-04-05T04:07:56.365Z,24.10
2019-04-05T04:10:29.943Z,29.20
2019-04-05T04:13:01.362Z,24.30
2019-04-05T04:15:33.780Z,25.40
2019-04-05T04:18:07.269Z,25.37
2019-04-05T04:20:47.401Z,24.43
2019-04-05T04:23:19.357Z,31.90
2019-04-05T04:25:52.700Z,24.00
2019-04-05T04:28:24.134Z,24.77
2019-04-05T04:30:55.904Z,28.90
2019-04-05T04:33:34.021Z,24.03
2019-04-05T04:36:05.879Z,22.67
2019-04-05T04:38:37.245Z,24.00
2019-04-05T04:41:09.053Z,26.90
2019-04-05T04:43:40.393Z,22.73
2019-04-05T04:46:11.758Z,27.73
2019-04-05T04:48:45.015Z,23.20
2019-04-05T04:51:16.828Z,23.33
2019-04-05T04:53:49.005Z,20.13
2019-04-05T04:56:20.431Z,24.33
2019-04-05T04:58:51.978Z,23.60
2019-04-05T05:01:23.720Z,26.10
2019-04-05T05:03:57.712Z,25.37
2019-04-05T05:06:29.469Z,25.33
2019-04-05T05:09:01.458Z,24.50
2019-04-05T05:11:32.631Z,26.10
2019-04-05T05:14:04.515Z,31.00
2019-04-05T05:16:35.998Z,26.97
2019-04-05T05:19:07.591Z,27.30
2019-04-05T05:21:39.487Z,25.23
2019-04-05T05:24:10.726Z,32.80
2019-04-05T05:26:42.379Z,35.20
2019-04-05T05:29:13.883Z,26.07
2019-04-05T05:31:45.126Z,27.67
2019-04-05T05:34:16.588Z,26.77
2019-04-05T05:36:48.137Z,28.47
2019-04-05T05:39:19.856Z,26.77
2019-04-05T05:41:53.976Z,31.77
2019-04-05T05:44:25.412Z,27.77
2019-04-05T05:46:56.686Z,21.47
2019-04-05T05:49:27.970Z,23.63
2019-04-05T05:51:59.507Z,28.67
2019-04-05T05:54:30.769Z,26.70
2019-04-05T05:57:01.995Z,25.37
2019-04-05T05:59:33.295Z,31.00
2019-04-05T06:02:07.155Z,25.73
2019-04-05T06:04:37.488Z,24.90
2019-04-05T06:07:09.386Z,34.10
2019-04-05T06:09:40.629Z,25.67
2019-04-05T06:12:11.877Z,30.47
2019-04-05T06:14:43.167Z,29.77
2019-04-05T06:17:14.350Z,26.60
2019-04-05T06:19:45.517Z,25.67
2019-04-05T06:22:16.695Z,23.23
2019-04-05T06:24:47.883Z,27.40
2019-04-05T06:27:22.185Z,25.10
2019-04-05T06:29:53.378Z,26.47
2019-04-05T06:32:24.647Z,30.03
2019-04-05T06:34:55.944Z,27.73
2019-04-05T06:39:56.795Z,25.33
2019-04-05T06:42:27.955Z,25.43
2019-04-05T06:44:59.202Z,24.70
2019-04-05T06:47:30.462Z,39.20
2019-04-05T06:50:01.727Z,28.10
2019-04-05T06:52:32.972Z,26.40
2019-04-05T06:55:04.349Z,27.80
2019-04-05T06:57:35.600Z,28.83
2019-04-05T07:00:07.486Z,27.77
2019-04-05T07:02:38.721Z,28.80
2019-04-05T07:05:10.104Z,28.00
2019-04-05T07:07:41.408Z,29.57
2019-04-05T07:10:12.890Z,40.00
2019-04-05T07:12:44.184Z,31.33
2019-04-05T07:15:15.656Z,35.27
2019-04-05T07:17:46.868Z,33.63
2019-04-05T07:20:18.189Z,37.20
2019-04-05T07:22:49.442Z,36.07
2019-04-05T07:25:20.659Z,34.00
2019-04-05T07:27:51.893Z,32.40
2019-04-05T07:30:23.376Z,34.53
2019-04-05T07:32:54.669Z,32.90
2019-04-05T07:35:33.512Z,27.90
2019-04-05T07:38:01.424Z,34.47
2019-04-05T07:40:32.754Z,36.47
2019-04-05T07:43:04.020Z,39.50
2019-04-05T07:45:35.183Z,38.97
2019-04-05T07:48:06.541Z,37.40
2019-04-05T07:50:37.828Z,30.20
2019-04-05T07:53:23.390Z,29.63
2019-04-05T07:55:55.218Z,29.80
2019-04-05T07:58:26.648Z,30.27
2019-04-05T08:00:58.775Z,28.37
2019-04-05T08:03:30.065Z,31.07
2019-04-05T08:06:01.300Z,37.27
2019-04-05T08:08:50.199Z,31.37
2019-04-05T08:17:06.125Z,26.57
2019-04-05T08:19:37.397Z,26.40
2019-04-05T08:22:08.642Z,22.93
2019-04-05T08:24:39.870Z,27.83
2019-04-05T08:27:11.154Z,25.17
2019-04-05T08:29:42.391Z,22.67
2019-04-05T08:32:15.001Z,24.10
2019-04-05T08:34:46.406Z,21.20
2019-04-05T08:37:17.585Z,18.60
2019-04-05T08:39:48.838Z,17.23
2019-04-05T08:42:20.045Z,16.83
2019-04-05T08:44:51.192Z,20.20
2019-04-05T08:47:22.796Z,18.10
2019-04-05T08:49:54.276Z,18.10
2019-04-05T08:52:27.040Z,20.37
2019-04-05T08:54:58.471Z,16.47
2019-04-05T08:57:29.914Z,18.37
2019-04-05T09:00:01.112Z,16.10
2019-04-05T09:02:32.487Z,18.70
2019-04-05T09:05:03.857Z,17.90
2019-04-05T09:07:35.218Z,18.03
2019-04-05T09:10:07.247Z,16.87
2019-04-05T09:12:38.525Z,17.77
2019-04-05T09:15:10.277Z,17.70
2019-04-05T09:17:41.532Z,13.90
2019-04-05T09:20:13.065Z,18.00
2019-04-05T09:22:44.344Z,20.67
2019-04-05T09:25:15.584Z,35.90
2019-04-05T09:27:46.781Z,35.40
2019-04-05T09:30:19.050Z,15.07
2019-04-05T09:32:50.261Z,17.30
2019-04-05T09:35:21.631Z,16.93
2019-04-05T09:37:52.873Z,11.23
2019-04-05T09:40:24.249Z,10.13
2019-04-05T09:42:55.473Z,10.97
2019-04-05T09:45:26.807Z,11.57
2019-04-05T09:48:01.170Z,12.33
2019-04-05T09:50:32.488Z,12.67
2019-04-05T09:53:03.827Z,13.20
2019-04-05T09:55:37.672Z,11.33
2019-04-05T09:58:10.181Z,12.20
2019-04-05T10:00:41.709Z,10.40
2019-04-05T10:03:12.952Z,11.70
2019-04-05T10:05:44.374Z,9.83
2019-04-05T10:08:15.730Z,12.40
2019-04-05T10:10:47.057Z,12.70
2019-04-05T10:13:18.292Z,10.53
2019-04-05T10:15:49.568Z,12.53
2019-04-05T10:18:20.884Z,10.40
2019-04-05T10:20:52.118Z,12.70
2019-04-05T10:23:23.414Z,10.23
2019-04-05T10:25:54.708Z,10.50
2019-04-05T10:28:25.962Z,12.17
2019-04-05T10:30:57.172Z,9.40
2019-04-05T10:33:28.491Z,12.97
2019-04-05T10:35:59.832Z,12.77
2019-04-05T10:38:31.070Z,19.60
2019-04-05T10:41:02.327Z,14.80
2019-04-05T10:43:33.605Z,15.93
2019-04-05T10:46:05.819Z,17.17
2019-04-05T10:48:37.224Z,14.70
2019-04-05T10:51:08.532Z,14.07
2019-04-05T10:53:39.872Z,14.20
2019-04-05T10:56:11.136Z,13.50
2019-04-05T10:58:42.505Z,12.33
2019-04-05T11:01:14.791Z,10.50
2019-04-05T11:03:46.043Z,14.03
2019-04-05T11:06:17.355Z,14.90
2019-04-05T11:08:48.677Z,11.90
2019-04-05T11:16:57.512Z,16.00
2019-04-05T11:19:18.163Z,17.67
2019-04-05T11:21:52.179Z,14.53
2019-04-05T11:24:22.646Z,15.10
2019-04-05T11:26:53.893Z,14.60
2019-04-05T11:29:25.158Z,16.40
2019-04-05T11:31:57.691Z,15.13
2019-04-05T11:34:29.129Z,15.43
2019-04-05T11:37:02.819Z,14.00
2019-04-05T11:39:35.165Z,14.50
2019-04-05T11:42:06.768Z,13.77
2019-04-05T11:44:41.436Z,14.57
2019-04-05T11:47:12.958Z,15.70
2019-04-05T11:49:47.969Z,16.33
2019-04-05T11:52:19.380Z,16.80
2019-04-05T11:54:50.998Z,14.43
2019-04-05T11:57:22.343Z,15.57
2019-04-05T11:59:53.736Z,15.70
2019-04-05T12:02:32.823Z,16.50
2019-04-05T12:05:12.690Z,16.07
2019-04-05T12:08:05.180Z,16.73
2019-04-05T12:10:46.001Z,18.57
2019-04-05T12:13:38.915Z,16.87
2019-04-05T12:16:27.555Z,15.93
2019-04-05T12:18:59.558Z,17.30
2019-04-05T12:21:34.804Z,15.97
2019-04-05T12:24:11.347Z,19.63
2019-04-05T12:26:46.181Z,15.70
2019-04-05T12:29:28.800Z,17.13
2019-04-05T12:32:08.494Z,15.13
2019-04-05T12:34:52.719Z,16.53
2019-04-05T12:37:27.210Z,15.43
2019-04-05T12:40:14.871Z,13.60
2019-04-05T12:43:00.338Z,16.93
2019-04-05T12:45:44.309Z,16.20
2019-04-05T12:48:16.000Z,13.03
2019-04-05T12:51:01.688Z,13.40
2019-04-05T12:53:38.177Z,16.00
2019-04-05T12:56:10.906Z,14.03
2019-04-05T12:58:43.607Z,14.57
2019-04-05T13:01:24.006Z,16.17
2019-04-05T13:03:58.390Z,16.70
2019-04-05T13:06:28.259Z,15.00
2019-04-05T13:08:59.488Z,14.97
2019-04-05T13:11:30.759Z,16.37
2019-04-05T13:14:02.063Z,15.40
2019-04-05T13:16:33.321Z,14.53
2019-04-05T13:19:04.579Z,16.40
2019-04-05T13:21:36.227Z,18.23
2019-04-05T13:24:10.002Z,18.00
2019-04-05T13:26:42.045Z,15.27
2019-04-05T13:29:13.391Z,17.50
2019-04-05T13:31:51.635Z,18.87
2019-04-05T13:34:25.642Z,16.60
2019-04-05T13:36:55.890Z,16.90
2019-04-05T13:39:27.540Z,19.47
2019-04-05T13:42:01.800Z,17.43
2019-04-05T13:44:33.052Z,14.30
2019-04-05T13:47:10.864Z,18.03
2019-04-05T13:49:42.238Z,18.63
2019-04-05T13:52:13.502Z,19.53
2019-04-05T13:54:44.847Z,17.33
2019-04-05T13:57:16.170Z,25.93
2019-04-05T13:59:47.559Z,20.67
2019-04-05T14:02:21.142Z,18.70
2019-04-05T14:04:53.877Z,21.50
2019-04-05T14:07:25.342Z,23.73
2019-04-05T14:12:40.193Z,19.53
2019-04-05T14:15:12.317Z,16.50
2019-04-05T14:17:44.746Z,23.17
2019-04-05T14:20:19.573Z,14.70
2019-04-05T14:22:52.333Z,19.10
2019-04-05T14:25:26.040Z,23.17
2019-04-05T14:27:56.695Z,17.17
2019-04-05T14:30:27.974Z,24.27
2019-04-05T14:32:59.274Z,16.30
2019-04-05T14:35:30.570Z,15.53
2019-04-05T14:38:01.708Z,15.90
2019-04-05T14:40:33.227Z,18.33
2019-04-05T14:43:04.544Z,16.47
2019-04-05T14:45:35.941Z,21.67
2019-04-05T14:48:07.328Z,19.63
2019-04-05T14:50:38.701Z,20.00
2019-04-05T14:53:09.866Z,17.70
2019-04-05T14:55:41.182Z,20.33
2019-04-05T14:58:12.385Z,28.93
2019-04-05T15:00:44.403Z,26.70
2019-04-05T15:03:16.630Z,26.37
2019-04-05T15:05:48.026Z,31.23
2019-04-05T15:08:20.716Z,18.60
2019-04-05T15:10:56.472Z,21.50
2019-04-05T15:13:25.278Z,21.53
2019-04-05T15:15:56.889Z,23.80
2019-04-05T15:18:28.384Z,22.03
2019-04-05T15:20:59.615Z,28.30
2019-04-05T15:23:30.794Z,22.60
2019-04-05T15:26:02.035Z,20.50
2019-04-05T15:28:33.386Z,24.37
2019-04-05T15:31:04.769Z,23.80
2019-04-05T15:33:36.086Z,23.20
2019-04-05T15:36:07.407Z,25.30
2019-04-05T15:38:38.654Z,24.07
2019-04-05T15:44:01.517Z,22.33
2019-04-05T15:46:32.785Z,19.10
2019-04-05T15:49:03.999Z,21.00
2019-04-05T15:51:35.273Z,18.10
2019-04-05T15:54:06.571Z,20.17
2019-04-05T15:56:37.796Z,18.40
2019-04-05T15:59:09.130Z,25.00
2019-04-05T16:01:41.180Z,20.10
2019-04-05T16:04:12.543Z,16.33
2019-04-05T16:06:43.770Z,22.30
2019-04-05T16:09:17.419Z,20.23
2019-04-05T16:11:49.748Z,22.77
2019-04-05T16:14:21.111Z,18.53
2019-04-05T16:16:53.724Z,19.70
2019-04-05T16:19:25.135Z,17.80
2019-04-05T16:21:56.384Z,21.30
2019-04-05T16:24:27.679Z,16.23
2019-04-05T16:26:58.983Z,17.10
2019-04-05T16:29:30.323Z,22.67
2019-04-05T16:32:01.627Z,19.97
2019-04-05T16:34:32.951Z,18.50
2019-04-05T16:37:04.518Z,19.87
2019-04-05T16:39:35.713Z,17.10
2019-04-05T16:42:09.988Z,20.53
2019-04-05T16:44:39.983Z,21.63
2019-04-05T16:47:11.149Z,16.50
2019-04-05T16:49:42.345Z,18.20
2019-04-05T16:52:13.590Z,17.70
2019-04-05T16:54:44.896Z,19.33
2019-04-05T16:57:16.128Z,23.60
2019-04-05T16:59:47.386Z,21.33
2019-04-05T17:02:18.627Z,25.17
2019-04-05T17:04:49.914Z,22.20
2019-04-05T17:07:21.147Z,22.87
2019-04-05T17:09:52.428Z,27.93
2019-04-05T17:12:23.633Z,26.60
2019-04-05T17:14:54.801Z,23.60
2019-04-05T17:17:26.034Z,21.03
2019-04-05T17:19:57.898Z,19.73
2019-04-05T17:22:33.508Z,26.53
2019-04-05T17:25:05.279Z,25.07
2019-04-05T17:27:36.502Z,24.43
2019-04-05T17:30:08.415Z,27.10
2019-04-05T17:32:39.578Z,24.30
2019-04-05T17:35:11.485Z,23.73
2019-04-05T17:37:42.733Z,22.63
2019-04-05T17:40:14.508Z,27.73
2019-04-05T17:42:45.757Z,26.03
2019-04-05T17:45:17.263Z,31.40
2019-04-05T17:47:48.477Z,27.30
2019-04-05T17:50:34.113Z,29.40
2019-04-05T17:53:12.583Z,28.70
2019-04-05T17:55:47.450Z,35.00
2019-04-05T17:58:19.883Z,32.70
2019-04-05T18:00:51.145Z,36.70
2019-04-05T18:03:22.413Z,46.60
2019-04-05T18:05:53.756Z,35.37
2019-04-05T18:08:24.943Z,40.30
2019-04-05T18:10:56.503Z,43.07
2019-04-05T18:13:27.795Z,37.17
2019-04-05T18:15:59.058Z,44.90
2019-04-05T18:18:30.359Z,35.60
2019-04-05T18:21:01.651Z,39.67
2019-04-05T18:23:32.948Z,48.27
2019-04-05T18:26:04.194Z,29.37
2019-04-05T18:28:35.565Z,43.60
2019-04-05T18:31:06.847Z,38.17
2019-04-05T18:33:38.081Z,43.27
2019-04-05T18:36:09.554Z,47.80
2019-04-05T18:38:40.783Z,29.93
2019-04-05T18:49:18.229Z,39.13
2019-04-05T18:51:49.490Z,40.77
2019-04-05T18:54:20.708Z,41.80
2019-04-05T18:56:51.960Z,38.20
2019-04-05T18:59:23.205Z,35.43
2019-04-05T19:01:54.489Z,42.07
2019-04-05T19:04:25.726Z,43.57
2019-04-05T19:06:56.976Z,46.20
2019-04-05T19:09:28.219Z,33.47
2019-04-05T19:11:59.429Z,42.90
2019-04-05T19:14:30.699Z,43.67
2019-04-05T19:17:03.167Z,41.03
2019-04-05T19:19:34.441Z,47.30
2019-04-05T19:22:05.798Z,42.03
2019-04-05T19:24:37.173Z,43.70
2019-04-05T19:27:08.502Z,39.30
2019-04-05T19:29:39.770Z,46.00
2019-04-05T19:50:04.333Z,46.40
2019-04-05T19:52:35.669Z,52.23
2019-04-05T19:55:08.045Z,50.17
2019-04-05T19:57:39.167Z,42.53
2019-04-05T20:00:11.206Z,47.47
2019-04-05T20:02:50.140Z,39.27
2019-04-05T20:05:21.659Z,50.23
2019-04-05T20:07:53.093Z,51.70
2019-04-05T20:13:06.401Z,43.20
2019-04-05T20:15:37.653Z,49.93
2019-04-05T20:18:09.009Z,55.10
2019-04-05T20:20:40.262Z,46.47
2019-04-05T20:23:11.660Z,43.60
2019-04-05T20:25:42.964Z,47.47
2019-04-05T20:28:14.201Z,48.07
2019-04-05T20:30:45.520Z,48.47
2019-04-05T20:33:16.813Z,48.47
2019-04-05T20:35:48.164Z,51.67
2019-04-05T20:38:19.401Z,50.43
2019-04-05T20:40:50.730Z,50.17
2019-04-05T20:43:25.131Z,52.50
2019-04-05T20:45:59.308Z,52.63
2019-04-05T20:48:30.498Z,40.73
2019-04-05T20:51:05.112Z,47.53
2019-04-05T20:53:36.429Z,46.20
2019-04-05T20:56:07.760Z,51.67
2019-04-05T20:58:39.130Z,45.07
2019-04-05T21:01:10.440Z,47.80
2019-04-05T21:03:41.805Z,46.77
2019-04-05T21:06:13.298Z,54.33
2019-04-05T21:08:44.617Z,47.97
2019-04-05T21:11:15.867Z,59.47
2019-04-05T21:13:47.315Z,51.57
2019-04-05T21:16:18.671Z,50.47
2019-04-05T21:18:50.022Z,47.07
2019-04-05T21:21:21.481Z,57.90
2019-04-05T21:23:52.922Z,51.07
2019-04-05T21:26:24.384Z,55.00
2019-04-05T21:28:56.847Z,51.37
2019-04-05T21:31:28.227Z,57.73
2019-04-05T21:34:02.149Z,48.33
2019-04-05T21:36:57.166Z,46.43
2019-04-05T21:39:47.426Z,48.70
2019-04-05T21:42:18.765Z,54.30
2019-04-05T21:44:54.060Z,56.50
2019-04-05T21:47:25.417Z,59.13
2019-04-05T21:50:20.349Z,56.90
2019-04-05T21:52:51.615Z,62.10
2019-04-05T21:55:22.928Z,61.20
2019-04-05T21:57:54.253Z,67.17
2019-04-05T22:00:34.111Z,57.07
2019-04-05T22:03:05.600Z,69.63
2019-04-05T22:05:36.883Z,60.20
2019-04-05T22:08:11.016Z,61.50
2019-04-05T22:10:42.342Z,73.50
2019-04-05T22:13:25.533Z,72.57
2019-04-05T22:15:56.809Z,62.93
2019-04-05T22:18:28.236Z,59.23
2019-04-05T22:21:00.003Z,65.17
2019-04-05T22:23:31.302Z,64.30
2019-04-05T22:26:03.125Z,67.40
2019-04-05T22:28:34.403Z,66.07
2019-04-05T22:31:05.782Z,65.70
2019-04-05T22:33:37.472Z,61.63
2019-04-05T22:36:11.725Z,74.43
2019-04-05T22:38:42.944Z,57.03
2019-04-05T22:41:14.156Z,66.03
2019-04-05T22:43:45.489Z,67.67
2019-04-05T22:46:16.705Z,63.10
2019-04-05T22:48:47.990Z,71.27
2019-04-05T22:51:19.249Z,62.80
2019-04-05T22:53:50.538Z,64.40
2019-04-05T22:56:21.810Z,72.53
2019-04-05T22:58:53.144Z,71.50
2019-04-05T23:01:24.350Z,62.30
2019-04-05T23:03:55.582Z,73.17
2019-04-05T23:06:26.837Z,78.97
2019-04-05T23:08:58.199Z,67.07
2019-04-05T23:11:29.514Z,61.80
2019-04-05T23:14:00.860Z,71.33
2019-04-05T23:16:32.216Z,75.47
2019-04-05T23:19:03.504Z,68.30
2019-04-05T23:21:34.883Z,71.47
2019-04-05T23:24:06.221Z,79.70
2019-04-05T23:26:37.429Z,63.00
2019-04-05T23:29:08.686Z,63.07
2019-04-05T23:31:39.950Z,65.20
2019-04-05T23:34:11.165Z,58.67
2019-04-05T23:36:42.369Z,63.23
2019-04-05T23:39:13.662Z,67.10
2019-04-05T23:41:44.865Z,71.57
2019-04-05T23:44:16.094Z,72.37
2019-04-05T23:46:47.384Z,75.80
2019-04-05T23:49:18.687Z,68.93
2019-04-05T23:51:51.170Z,75.73
2019-04-05T23:54:22.499Z,77.23
2019-04-05T23:56:53.689Z,73.60
2019-04-05T23:59:24.993Z,66.50
